Time;durP1;ratioP1;P1;durP2;ratioP2;P2;SDS_P1;SDS_P2;PMS_P1;PMS_P2;Temp;Humidity;BMP_temperature;BMP_pressure;BME280_temperature;BME280_humidity;BME280_pressure;Samples;Min_cycle;Max_cycle;Signal;HPM_P1;HPM_P2
2024/04/10 00:01:21;;;;;;;;;;;9.70;99.90;;;;;;5499040;25;19933;-63
2024/04/10 00:03:48;;;;;;;;;;;9.70;99.90;;;;;;5486277;26;20368;-62
2024/04/10 00:06:15;;;;;;;;;;;9.70;99.90;;;;;;5489269;25;19928;-63
2024/04/10 00:08:42;;;;;;;;;;;9.60;99.90;;;;;;5494793;26;19933;-63
2024/04/10 00:11:09;;;;;;;;;;;9.70;99.90;;;;;;5502251;26;20365;-63
2024/04/10 00:13:37;;;;;;;;;;;9.60;99.90;;;;;;5510481;25;20378;-63
2024/04/10 00:16:05;;;;;;;;;;;9.70;99.90;;;;;;5485418;26;19947;-63
2024/04/10 00:18:34;;;;;;;;;;;9.60;99.90;;;;;;5522380;25;19927;-63
2024/04/10 00:21:01;;;;;;;;;;;9.60;99.90;;;;;;5513196;25;20361;-63
2024/04/10 00:23:28;;;;;;;;;;;9.60;99.90;;;;;;5506484;25;19927;-63
2024/04/10 00:25:59;;;;;;;;;;;9.60;99.90;;;;;;5518234;25;19928;-63
2024/04/10 00:28:27;;;;;;;;;;;9.60;99.90;;;;;;5512263;25;20361;-63
2024/04/10 00:30:54;;;;;;;;;;;9.60;99.90;;;;;;5489264;25;20373;-63
2024/04/10 00:33:21;;;;;;;;;;;9.60;99.90;;;;;;5503377;25;19934;-63
2024/04/10 00:36:01;;;;;;;;;;;9.70;99.90;;;;;;5498851;26;20266;-63
2024/04/10 00:38:29;;;;;;;;;;;9.70;99.90;;;;;;5501745;25;19934;-62
2024/04/10 00:40:56;;;;;;;;;;;9.70;99.90;;;;;;5520178;25;19928;-63
2024/04/10 00:43:24;;;;;;;;;;;9.70;99.90;;;;;;5512861;25;19934;-63
2024/04/10 00:45:56;;;;;;;;;;;9.70;99.90;;;;;;5497983;25;19934;-63
2024/04/10 00:48:24;;;;;;;;;;;9.60;99.90;;;;;;5502130;25;19927;-63
2024/04/10 00:50:51;;;;;;;;;;;9.70;99.90;;;;;;5509584;25;19928;-63
2024/04/10 00:53:18;;;;;;;;;;;9.80;99.90;;;;;;5509768;25;19928;-63
2024/04/10 00:55:46;;;;;;;;;;;9.80;99.90;;;;;;5494646;25;19928;-63
2024/04/10 00:58:12;;;;;;;;;;;9.80;99.90;;;;;;5491260;26;19935;-63
2024/04/10 01:00:40;;;;;;;;;;;9.80;99.90;;;;;;5492275;26;20340;-63
2024/04/10 01:03:08;;;;;;;;;;;9.80;99.90;;;;;;5513152;25;20461;-63
2024/04/10 01:05:34;;;;;;;;;;;9.80;99.90;;;;;;5515488;25;20369;-63
2024/04/10 01:08:02;;;;;;;;;;;9.80;99.90;;;;;;5511204;25;19927;-63
2024/04/10 01:10:29;;;;;;;;;;;9.80;99.90;;;;;;5508309;26;20479;-62
2024/04/10 01:12:55;;;;;;;;;;;9.70;99.90;;;;;;5503318;25;19942;-63
2024/04/10 01:15:22;;;;;;;;;;;9.50;99.90;;;;;;5501601;25;19927;-63
2024/04/10 01:17:49;;;;;;;;;;;9.70;99.90;;;;;;5520506;25;19927;-62
2024/04/10 01:20:17;;;;;;;;;;;9.70;99.90;;;;;;5528507;25;19928;-63
2024/04/10 01:22:44;;;;;;;;;;;9.70;99.90;;;;;;5521885;25;20284;-63
2024/04/10 01:25:11;;;;;;;;;;;9.70;99.90;;;;;;5490979;25;19942;-63
2024/04/10 01:27:37;;;;;;;;;;;9.70;99.90;;;;;;5522230;25;20372;-63
2024/04/10 01:30:04;;;;;;;;;;;9.70;99.90;;;;;;5525193;25;19927;-62
2024/04/10 01:32:31;;;;;;;;;;;9.60;99.90;;;;;;5508018;25;19928;-63
2024/04/10 01:34:58;;;;;;;;;;;9.60;99.90;;;;;;5514293;25;19934;-63
2024/04/10 01:37:25;;;;;;;;;;;9.60;99.90;;;;;;5493980;25;19935;-63
2024/04/10 01:39:52;;;;;;;;;;;9.60;99.90;;;;;;5527577;25;20370;-63
2024/04/10 01:42:19;;;;;;;;;;;9.60;99.90;;;;;;5504642;25;19928;-63
2024/04/10 01:44:45;;;;;;;;;;;9.60;99.90;;;;;;5476795;25;19928;-63
2024/04/10 01:47:12;;;;;;;;;;;9.60;99.90;;;;;;5504893;25;19927;-62
2024/04/10 01:49:39;;;;;;;;;;;9.60;99.90;;;;;;5508938;25;19928;-63
2024/04/10 01:52:06;;;;;;;;;;;9.60;99.90;;;;;;5473705;25;20381;-63
2024/04/10 01:54:33;;;;;;;;;;;9.60;99.90;;;;;;5489692;25;19927;-63
2024/04/10 01:57:00;;;;;;;;;;;9.60;99.90;;;;;;5487897;25;20461;-63
2024/04/10 01:59:26;;;;;;;;;;;9.60;99.90;;;;;;5482079;25;19928;-64
2024/04/10 02:01:53;;;;;;;;;;;9.60;99.90;;;;;;5491788;25;19927;-63
2024/04/10 02:04:20;;;;;;;;;;;9.60;99.90;;;;;;5490724;25;19928;-63
2024/04/10 02:06:47;;;;;;;;;;;9.60;99.90;;;;;;5495716;25;19927;-63
2024/04/10 02:09:14;;;;;;;;;;;9.60;99.90;;;;;;5510268;25;20278;-62
2024/04/10 02:11:41;;;;;;;;;;;9.60;99.90;;;;;;5515481;25;19943;-63
2024/04/10 02:14:08;;;;;;;;;;;9.60;99.90;;;;;;5515851;25;19927;-63
2024/04/10 02:16:34;;;;;;;;;;;9.60;99.90;;;;;;5492144;26;19957;-62
2024/04/10 02:19:01;;;;;;;;;;;9.60;99.90;;;;;;5534041;25;19934;-63
2024/04/10 02:21:29;;;;;;;;;;;9.60;99.90;;;;;;5503355;25;19933;-63
2024/04/10 02:23:56;;;;;;;;;;;9.60;99.90;;;;;;5535250;25;19926;-63
2024/04/10 02:26:23;;;;;;;;;;;9.50;99.90;;;;;;5511270;25;19927;-63
2024/04/10 02:28:50;;;;;;;;;;;9.50;99.90;;;;;;5524400;25;19932;-63
2024/04/10 02:31:17;;;;;;;;;;;9.50;99.90;;;;;;5544542;25;19934;-63
2024/04/10 02:33:44;;;;;;;;;;;9.40;99.90;;;;;;5518553;25;19934;-63
2024/04/10 02:36:11;;;;;;;;;;;9.30;99.90;;;;;;5480263;25;19928;-63
2024/04/10 02:38:38;;;;;;;;;;;9.30;99.90;;;;;;5504996;26;19934;-63
2024/04/10 02:41:05;;;;;;;;;;;9.30;99.90;;;;;;5514935;25;19927;-63
2024/04/10 02:43:32;;;;;;;;;;;9.40;99.90;;;;;;5512336;25;19927;-63
2024/04/10 02:46:02;;;;;;;;;;;9.30;99.90;;;;;;5499050;25;19943;-63
2024/04/10 02:48:29;;;;;;;;;;;9.30;99.90;;;;;;5509428;25;20377;-64
2024/04/10 02:50:56;;;;;;;;;;;9.30;99.90;;;;;;5503349;26;20387;-63
2024/04/10 02:53:23;;;;;;;;;;;9.30;99.90;;;;;;5495936;25;19927;-63
2024/04/10 02:55:50;;;;;;;;;;;9.30;99.90;;;;;;5502599;25;19931;-63
2024/04/10 02:58:17;;;;;;;;;;;9.30;99.90;;;;;;5502185;25;19934;-63
2024/04/10 03:00:48;;;;;;;;;;;9.20;99.90;;;;;;5512061;25;19957;-63
2024/04/10 03:03:15;;;;;;;;;;;9.30;99.90;;;;;;5493740;25;20000;-64
2024/04/10 03:05:42;;;;;;;;;;;9.20;99.90;;;;;;5489287;25;19928;-63
2024/04/10 03:08:12;;;;;;;;;;;9.20;99.90;;;;;;5468213;26;19942;-63
2024/04/10 03:10:39;;;;;;;;;;;9.20;99.90;;;;;;5503003;26;20692;-63
2024/04/10 03:13:07;;;;;;;;;;;9.20;99.90;;;;;;5489221;25;20433;-63
2024/04/10 03:15:33;;;;;;;;;;;9.20;99.90;;;;;;5513507;25;19928;-63
2024/04/10 03:18:02;;;;;;;;;;;9.20;99.90;;;;;;5506125;25;19934;-63
2024/04/10 03:20:28;;;;;;;;;;;9.10;99.90;;;;;;5512195;25;19934;-63
2024/04/10 03:22:59;;;;;;;;;;;9.20;99.90;;;;;;5487873;25;19927;-63
2024/04/10 03:25:26;;;;;;;;;;;9.20;99.90;;;;;;5501753;25;19927;-63
2024/04/10 03:27:53;;;;;;;;;;;9.10;99.90;;;;;;5523003;25;20364;-63
2024/04/10 03:30:20;;;;;;;;;;;9.10;99.90;;;;;;5493381;25;20406;-63
2024/04/10 03:32:47;;;;;;;;;;;9.20;99.90;;;;;;5501254;25;20270;-63
2024/04/10 03:35:13;;;;;;;;;;;9.10;99.90;;;;;;5522367;25;19933;-63
2024/04/10 03:37:40;;;;;;;;;;;9.20;99.90;;;;;;5525177;25;19941;-63
2024/04/10 03:40:07;;;;;;;;;;;9.30;99.90;;;;;;5520801;25;19926;-63
2024/04/10 03:42:34;;;;;;;;;;;9.20;99.90;;;;;;5505993;25;19934;-63
2024/04/10 03:45:01;;;;;;;;;;;9.20;99.90;;;;;;5533054;25;19927;-63
2024/04/10 03:47:28;;;;;;;;;;;9.30;99.90;;;;;;5519809;25;19927;-63
2024/04/10 03:49:55;;;;;;;;;;;9.20;99.90;;;;;;5475459;26;19928;-63
2024/04/10 03:52:22;;;;;;;;;;;9.20;99.90;;;;;;5498552;26;19928;-64
2024/04/10 03:54:50;;;;;;;;;;;9.30;99.90;;;;;;5469077;26;20004;-63
2024/04/10 03:57:17;;;;;;;;;;;9.20;99.90;;;;;;5486841;26;19928;-63
2024/04/10 03:59:44;;;;;;;;;;;9.20;99.90;;;;;;5510291;25;20000;-63
2024/04/10 04:02:11;;;;;;;;;;;9.20;99.90;;;;;;5500553;25;19939;-63
2024/04/10 04:04:38;;;;;;;;;;;9.10;99.90;;;;;;5509942;26;19928;-63
2024/04/10 04:07:05;;;;;;;;;;;9.10;99.90;;;;;;5519726;25;20844;-63
2024/04/10 04:09:32;;;;;;;;;;;9.00;99.90;;;;;;5539406;25;19933;-63
2024/04/10 04:11:59;;;;;;;;;;;9.00;99.90;;;;;;5506351;25;20285;-63
2024/04/10 04:14:27;;;;;;;;;;;9.00;99.90;;;;;;5479825;26;19940;-63
2024/04/10 04:16:54;;;;;;;;;;;8.90;99.90;;;;;;5514113;25;19933;-63
2024/04/10 04:19:21;;;;;;;;;;;8.90;99.90;;;;;;5514112;25;19927;-63
2024/04/10 04:21:48;;;;;;;;;;;8.90;99.90;;;;;;5514239;25;19933;-63
2024/04/10 04:24:15;;;;;;;;;;;8.90;99.90;;;;;;5532854;25;20374;-63
2024/04/10 04:26:42;;;;;;;;;;;8.90;99.90;;;;;;5482421;25;19934;-63
2024/04/10 04:29:09;;;;;;;;;;;8.90;99.90;;;;;;5501972;26;19946;-64
2024/04/10 04:31:36;;;;;;;;;;;8.90;99.90;;;;;;5527899;25;20022;-63
2024/04/10 04:34:09;;;;;;;;;;;8.90;99.90;;;;;;5517238;25;19934;-63
2024/04/10 04:36:39;;;;;;;;;;;9.00;99.90;;;;;;5530427;25;20312;-64
2024/04/10 04:39:07;;;;;;;;;;;9.00;99.90;;;;;;5507779;26;19928;-63
2024/04/10 04:41:34;;;;;;;;;;;9.00;99.90;;;;;;5528196;25;20105;-64
2024/04/10 04:44:01;;;;;;;;;;;9.00;99.90;;;;;;5494582;25;19927;-63
2024/04/10 04:46:29;;;;;;;;;;;9.00;99.90;;;;;;5545883;25;20377;-64
2024/04/10 04:48:56;;;;;;;;;;;9.00;99.90;;;;;;5492008;25;19935;-63
2024/04/10 04:51:23;;;;;;;;;;;9.00;99.90;;;;;;5496913;26;19928;-63
2024/04/10 04:53:49;;;;;;;;;;;9.00;99.90;;;;;;5501253;25;19928;-63
2024/04/10 04:56:16;;;;;;;;;;;9.10;99.90;;;;;;5518669;25;19933;-63
2024/04/10 04:58:43;;;;;;;;;;;9.10;99.90;;;;;;5531847;25;20266;-63
2024/04/10 05:01:10;;;;;;;;;;;9.10;99.90;;;;;;5544156;25;19926;-63
2024/04/10 05:06:22;;;;;;;;;;;9.10;99.90;;;;;;5537843;25;19927;-63
2024/04/10 05:08:49;;;;;;;;;;;9.20;99.90;;;;;;5541648;25;20269;-63
2024/04/10 05:11:16;;;;;;;;;;;9.20;99.90;;;;;;5541444;25;20326;-63
2024/04/10 05:13:43;;;;;;;;;;;9.20;99.90;;;;;;5541018;25;19927;-63
2024/04/10 05:16:10;;;;;;;;;;;9.20;99.90;;;;;;5539669;25;20347;-63
2024/04/10 05:18:37;;;;;;;;;;;9.20;99.90;;;;;;5544256;25;19933;-63
2024/04/10 05:21:04;;;;;;;;;;;9.20;99.90;;;;;;5539173;25;19962;-64
2024/04/10 05:23:31;;;;;;;;;;;9.20;99.90;;;;;;5542763;25;21682;-63
2024/04/10 05:26:04;;;;;;;;;;;9.20;99.90;;;;;;5535246;25;19935;-63
2024/04/10 05:28:32;;;;;;;;;;;9.30;99.90;;;;;;5538257;25;19935;-63
2024/04/10 05:31:03;;;;;;;;;;;9.30;99.90;;;;;;5536428;25;19933;-63
2024/04/10 05:33:30;;;;;;;;;;;9.30;99.90;;;;;;5542428;25;19933;-63
2024/04/10 05:35:57;;;;;;;;;;;9.30;99.90;;;;;;5538473;25;19927;-63
2024/04/10 05:38:24;;;;;;;;;;;9.30;99.90;;;;;;5540615;25;19927;-63
2024/04/10 05:40:52;;;;;;;;;;;9.40;99.90;;;;;;5538942;25;19935;-63
2024/04/10 05:43:19;;;;;;;;;;;9.40;99.90;;;;;;5535050;25;19933;-63
2024/04/10 05:45:46;;;;;;;;;;;9.50;99.90;;;;;;5533026;25;19927;-63
2024/04/10 05:48:13;;;;;;;;;;;9.60;99.90;;;;;;5539584;25;19927;-63
2024/04/10 05:50:41;;;;;;;;;;;9.50;99.90;;;;;;5537071;25;19927;-63
2024/04/10 05:53:08;;;;;;;;;;;9.60;99.90;;;;;;5540602;25;19927;-64
2024/04/10 05:55:34;;;;;;;;;;;9.60;99.90;;;;;;5538935;25;19934;-63
2024/04/10 05:58:01;;;;;;;;;;;9.70;99.90;;;;;;5542476;25;19933;-63
2024/04/10 06:00:28;;;;;;;;;;;9.60;99.90;;;;;;5540315;25;20273;-64
2024/04/10 06:02:55;;;;;;;;;;;9.60;99.90;;;;;;5540077;25;20258;-63
2024/04/10 06:05:24;;;;;;;;;;;9.60;99.90;;;;;;5504982;25;19927;-63
2024/04/10 06:07:50;;;;;;;;;;;9.60;99.90;;;;;;5536907;25;20380;-63
2024/04/10 06:10:19;;;;;;;;;;;9.60;99.90;;;;;;5539143;25;19926;-63
2024/04/10 06:12:49;;;;;;;;;;;9.60;99.90;;;;;;5536496;25;19933;-64
2024/04/10 06:15:16;;;;;;;;;;;9.60;99.90;;;;;;5538795;25;19933;-63
2024/04/10 06:17:43;;;;;;;;;;;9.70;99.90;;;;;;5538690;25;19933;-63
2024/04/10 06:20:11;;;;;;;;;;;9.80;99.90;;;;;;5539651;25;19933;-63
2024/04/10 06:22:38;;;;;;;;;;;9.90;99.90;;;;;;5537339;25;20255;-63
2024/04/10 06:25:05;;;;;;;;;;;9.90;99.90;;;;;;5540421;25;19927;-63
2024/04/10 06:27:32;;;;;;;;;;;9.90;99.90;;;;;;5533554;25;19926;-63
2024/04/10 06:29:59;;;;;;;;;;;9.90;99.90;;;;;;5537886;25;19927;-63
2024/04/10 06:32:26;;;;;;;;;;;10.00;99.90;;;;;;5535831;25;19927;-63
2024/04/10 06:34:53;;;;;;;;;;;10.20;99.90;;;;;;5536098;25;19953;-63
2024/04/10 06:37:20;;;;;;;;;;;10.40;99.90;;;;;;5533872;25;19954;-63
2024/04/10 06:39:49;;;;;;;;;;;10.60;99.90;;;;;;5541201;25;20684;-63
2024/04/10 06:42:16;;;;;;;;;;;10.70;99.90;;;;;;5534359;25;19927;-63
2024/04/10 06:44:43;;;;;;;;;;;10.90;99.90;;;;;;5534799;25;19933;-64
2024/04/10 06:47:10;;;;;;;;;;;11.30;99.90;;;;;;5535396;25;19933;-63
2024/04/10 06:49:37;;;;;;;;;;;11.50;99.90;;;;;;5535709;25;19937;-63
2024/04/10 06:52:03;;;;;;;;;;;11.60;99.90;;;;;;5536832;25;19927;-64
2024/04/10 06:54:30;;;;;;;;;;;11.90;99.90;;;;;;5535188;25;19933;-63
2024/04/10 06:56:57;;;;;;;;;;;12.20;99.90;;;;;;5539748;25;19934;-62
2024/04/10 06:59:24;;;;;;;;;;;12.20;99.90;;;;;;5537847;25;20710;-63
2024/04/10 07:01:51;;;;;;;;;;;12.50;99.90;;;;;;5532575;25;19942;-63
2024/04/10 07:04:18;;;;;;;;;;;12.80;99.90;;;;;;5538779;25;19927;-63
2024/04/10 07:06:45;;;;;;;;;;;12.90;99.90;;;;;;5537461;25;19927;-63
2024/04/10 07:09:14;;;;;;;;;;;12.80;99.90;;;;;;5537173;25;19941;-64
2024/04/10 07:11:40;;;;;;;;;;;12.80;99.90;;;;;;5505286;25;19933;-63
2024/04/10 07:14:07;;;;;;;;;;;13.20;99.90;;;;;;5536006;25;20000;-64
2024/04/10 07:16:34;;;;;;;;;;;13.10;99.90;;;;;;5537619;25;20258;-63
2024/04/10 07:19:01;;;;;;;;;;;13.30;99.90;;;;;;5538225;25;19934;-64
2024/04/10 07:21:28;;;;;;;;;;;13.50;99.90;;;;;;5502329;25;19933;-63
2024/04/10 07:23:56;;;;;;;;;;;13.50;99.90;;;;;;5536040;25;19927;-63
2024/04/10 07:26:23;;;;;;;;;;;13.40;99.90;;;;;;5533927;25;20263;-64
2024/04/10 07:28:55;;;;;;;;;;;13.30;99.90;;;;;;5537930;25;19927;-64
2024/04/10 07:31:28;;;;;;;;;;;13.20;99.90;;;;;;5536079;25;19927;-64
2024/04/10 07:33:56;;;;;;;;;;;13.00;99.90;;;;;;5538807;25;19934;-66
2024/04/10 07:36:24;;;;;;;;;;;13.00;99.90;;;;;;5533862;25;19933;-63
2024/04/10 07:38:54;;;;;;;;;;;12.90;99.90;;;;;;5537579;25;19926;-63
2024/04/10 07:41:21;;;;;;;;;;;12.90;99.90;;;;;;5534285;25;19933;-63
2024/04/10 07:43:49;;;;;;;;;;;12.70;99.90;;;;;;5539057;25;20021;-64
2024/04/10 07:46:17;;;;;;;;;;;12.50;99.90;;;;;;5531181;25;20372;-63
2024/04/10 07:48:47;;;;;;;;;;;12.40;99.90;;;;;;5538367;25;19933;-63
2024/04/10 07:51:15;;;;;;;;;;;12.60;99.90;;;;;;5537135;25;20362;-64
2024/04/10 07:53:42;;;;;;;;;;;12.90;99.90;;;;;;5540582;25;19927;-63
2024/04/10 07:56:09;;;;;;;;;;;13.20;99.90;;;;;;5537381;25;19943;-63
2024/04/10 07:58:37;;;;;;;;;;;13.00;99.90;;;;;;5539105;25;19927;-63
2024/04/10 08:01:04;;;;;;;;;;;12.80;99.90;;;;;;5535901;25;19927;-63
2024/04/10 08:03:31;;;;;;;;;;;13.10;99.90;;;;;;5541721;25;19942;-63
2024/04/10 08:06:00;;;;;;;;;;;13.10;99.90;;;;;;5534176;25;19933;-64
2024/04/10 08:08:27;;;;;;;;;;;13.50;99.90;;;;;;5543683;25;19927;-64
2024/04/10 08:10:55;;;;;;;;;;;13.70;99.90;;;;;;5541903;25;19927;-63
2024/04/10 08:13:24;;;;;;;;;;;13.60;99.90;;;;;;5541187;25;19933;-62
2024/04/10 08:16:04;;;;;;;;;;;14.00;99.90;;;;;;5545577;25;20268;-63
2024/04/10 08:18:32;;;;;;;;;;;14.30;99.90;;;;;;5514075;25;20760;-63
2024/04/10 08:21:01;;;;;;;;;;;14.40;99.90;;;;;;5537592;25;19934;-64
2024/04/10 08:23:29;;;;;;;;;;;14.90;99.90;;;;;;5542849;25;20350;-63
2024/04/10 08:25:56;;;;;;;;;;;15.40;99.90;;;;;;5537963;25;20297;-63
2024/04/10 08:28:26;;;;;;;;;;;15.50;99.90;;;;;;5543034;25;20269;-63
2024/04/10 08:30:55;;;;;;;;;;;15.30;99.90;;;;;;5538522;25;19942;-63
2024/04/10 08:33:27;;;;;;;;;;;15.20;99.90;;;;;;5543203;25;19934;-62
2024/04/10 08:35:55;;;;;;;;;;;14.90;99.90;;;;;;5536706;25;20339;-63
2024/04/10 08:38:23;;;;;;;;;;;14.50;99.90;;;;;;5507921;25;19926;-63
2024/04/10 08:40:50;;;;;;;;;;;14.50;99.90;;;;;;5538351;25;20418;-63
2024/04/10 08:43:18;;;;;;;;;;;14.60;99.90;;;;;;5540915;25;20447;-64
2024/04/10 08:45:45;;;;;;;;;;;14.80;99.90;;;;;;5487232;25;21543;-64
2024/04/10 08:48:12;;;;;;;;;;;14.90;99.90;;;;;;5521546;25;19936;-63
2024/04/10 08:50:41;;;;;;;;;;;15.50;99.90;;;;;;5519988;25;19934;-64
2024/04/10 08:53:09;;;;;;;;;;;15.20;99.90;;;;;;5533963;25;19933;-64
2024/04/10 08:55:36;;;;;;;;;;;14.80;99.90;;;;;;5535480;25;19928;-63
2024/04/10 08:58:02;;;;;;;;;;;14.40;99.90;;;;;;5534739;25;20486;-63
2024/04/10 09:00:29;;;;;;;;;;;14.20;99.90;;;;;;5538057;25;19927;-64
2024/04/10 09:02:57;;;;;;;;;;;14.20;99.90;;;;;;5538291;25;19934;-64
2024/04/10 09:05:26;;;;;;;;;;;14.40;99.90;;;;;;5537786;25;19927;-64
2024/04/10 09:07:59;;;;;;;;;;;14.70;99.90;;;;;;5539780;25;19942;-64
2024/04/10 09:10:26;;;;;;;;;;;15.00;99.90;;;;;;5541068;25;19945;-63
2024/04/10 09:13:03;;;;;;;;;;;15.30;99.90;;;;;;5538903;25;19927;-64
2024/04/10 09:15:30;;;;;;;;;;;15.20;99.90;;;;;;5539663;25;19930;-64
2024/04/10 09:17:57;;;;;;;;;;;15.00;99.90;;;;;;5540437;25;20375;-64
2024/04/10 09:20:24;;;;;;;;;;;14.70;99.90;;;;;;5541184;25;19928;-63
2024/04/10 09:23:17;;;;;;;;;;;14.70;99.90;;;;;;5539105;25;19928;-62
2024/04/10 09:25:47;;;;;;;;;;;14.70;99.90;;;;;;5530948;25;19928;-62
2024/04/10 09:28:13;;;;;;;;;;;14.50;99.90;;;;;;5540229;25;19927;-63
2024/04/10 09:30:41;;;;;;;;;;;14.60;99.90;;;;;;5505045;25;19931;-63
2024/04/10 09:33:09;;;;;;;;;;;14.70;99.90;;;;;;5541622;25;20376;-62
2024/04/10 09:35:36;;;;;;;;;;;14.80;99.90;;;;;;5538407;25;20351;-63
2024/04/10 09:38:03;;;;;;;;;;;14.70;99.90;;;;;;5540700;25;20298;-63
2024/04/10 09:40:31;;;;;;;;;;;14.50;99.90;;;;;;5538019;25;20373;-63
2024/04/10 09:43:03;;;;;;;;;;;14.40;99.90;;;;;;5537735;25;19931;-63
2024/04/10 09:45:37;;;;;;;;;;;14.10;99.90;;;;;;5535053;25;19935;-63
2024/04/10 09:48:05;;;;;;;;;;;13.90;99.90;;;;;;5543351;25;19927;-63
2024/04/10 09:50:36;;;;;;;;;;;13.80;99.90;;;;;;5539432;25;21296;-63
2024/04/10 09:53:07;;;;;;;;;;;13.80;99.90;;;;;;5534778;25;20419;-63
2024/04/10 09:55:37;;;;;;;;;;;13.70;99.90;;;;;;5536313;25;19928;-63
2024/04/10 09:58:05;;;;;;;;;;;13.70;99.90;;;;;;5535867;25;20356;-63
2024/04/10 10:00:35;;;;;;;;;;;14.00;99.90;;;;;;5536224;25;19941;-63
2024/04/10 10:03:05;;;;;;;;;;;14.20;99.90;;;;;;5538769;25;19941;-62
2024/04/10 10:05:32;;;;;;;;;;;14.20;99.90;;;;;;5447610;25;20366;-63
2024/04/10 10:08:03;;;;;;;;;;;14.20;99.90;;;;;;5540126;25;20374;-62
2024/04/10 10:10:30;;;;;;;;;;;14.30;99.90;;;;;;5540873;25;19928;-62
2024/04/10 10:13:06;;;;;;;;;;;14.60;99.90;;;;;;5539094;25;20358;-62
2024/04/10 10:15:33;;;;;;;;;;;14.80;99.90;;;;;;5540801;25;19934;-62
2024/04/10 10:18:00;;;;;;;;;;;15.00;99.90;;;;;;5539723;25;19927;-63
2024/04/10 10:20:29;;;;;;;;;;;15.10;99.90;;;;;;5541669;25;19928;-62
2024/04/10 10:22:58;;;;;;;;;;;15.30;99.90;;;;;;5540814;25;19928;-62
2024/04/10 10:25:26;;;;;;;;;;;14.90;99.90;;;;;;5535281;25;19927;-62
2024/04/10 10:28:07;;;;;;;;;;;14.70;99.90;;;;;;5529185;25;19937;-62
2024/04/10 10:30:34;;;;;;;;;;;14.50;99.90;;;;;;5517236;25;19934;-62
2024/04/10 10:33:04;;;;;;;;;;;14.30;99.90;;;;;;5531718;25;20049;-62
2024/04/10 10:35:32;;;;;;;;;;;14.20;99.90;;;;;;5534704;25;20758;-63
2024/04/10 10:38:05;;;;;;;;;;;14.20;99.90;;;;;;5535528;25;19927;-62
2024/04/10 10:40:32;;;;;;;;;;;14.40;99.90;;;;;;5535584;25;19935;-63
2024/04/10 10:43:05;;;;;;;;;;;14.80;99.90;;;;;;5531816;25;20373;-62
2024/04/10 10:45:32;;;;;;;;;;;14.80;99.90;;;;;;5530452;25;19936;-62
2024/04/10 10:48:00;;;;;;;;;;;14.70;99.90;;;;;;5540798;25;20783;-62
2024/04/10 10:50:27;;;;;;;;;;;14.70;99.90;;;;;;5537495;25;19933;-62
2024/04/10 10:52:54;;;;;;;;;;;14.60;99.90;;;;;;5534349;25;19926;-62
2024/04/10 10:55:20;;;;;;;;;;;14.40;99.90;;;;;;5499280;25;20737;-62
2024/04/10 10:57:47;;;;;;;;;;;14.60;99.90;;;;;;5538493;25;20003;-62
2024/04/10 11:00:17;;;;;;;;;;;15.10;99.90;;;;;;5534518;25;19927;-62
2024/04/10 11:02:44;;;;;;;;;;;15.30;99.90;;;;;;5537149;25;20477;-62
2024/04/10 11:05:12;;;;;;;;;;;15.40;99.90;;;;;;5536455;25;19936;-62
2024/04/10 11:07:40;;;;;;;;;;;15.90;99.90;;;;;;5507166;25;19927;-62
2024/04/10 11:10:10;;;;;;;;;;;15.70;99.90;;;;;;5536254;25;19927;-62
2024/04/10 11:12:37;;;;;;;;;;;15.60;99.90;;;;;;5531178;25;19933;-62
2024/04/10 11:15:05;;;;;;;;;;;15.40;99.90;;;;;;5533616;25;20069;-62
2024/04/10 11:17:32;;;;;;;;;;;15.40;99.90;;;;;;5540287;25;20385;-62
2024/04/10 11:19:58;;;;;;;;;;;15.50;99.90;;;;;;5537456;25;20484;-63
2024/04/10 11:22:25;;;;;;;;;;;15.60;99.90;;;;;;5535596;25;19934;-63
2024/04/10 11:24:53;;;;;;;;;;;15.60;99.90;;;;;;5533595;25;19938;-62
2024/04/10 11:27:21;;;;;;;;;;;15.80;99.80;;;;;;5536971;25;19933;-63
2024/04/10 11:29:50;;;;;;;;;;;16.20;99.90;;;;;;5537230;25;20277;-62
2024/04/10 11:32:17;;;;;;;;;;;16.60;99.60;;;;;;5535598;25;20598;-63
2024/04/10 11:34:44;;;;;;;;;;;16.60;98.90;;;;;;5539081;25;20269;-63
2024/04/10 11:37:12;;;;;;;;;;;16.70;99.60;;;;;;5531075;25;20333;-63
2024/04/10 11:39:39;;;;;;;;;;;16.70;99.90;;;;;;5533891;25;19927;-62
2024/04/10 11:42:06;;;;;;;;;;;16.50;99.90;;;;;;5530999;25;19927;-62
2024/04/10 11:44:33;;;;;;;;;;;16.40;98.90;;;;;;5532791;25;19941;-62
2024/04/10 11:47:00;;;;;;;;;;;16.00;98.60;;;;;;5535342;25;19926;-64
2024/04/10 11:49:27;;;;;;;;;;;16.00;99.40;;;;;;5530374;25;19927;-62
2024/04/10 11:51:53;;;;;;;;;;;16.30;99.90;;;;;;5529660;25;20752;-63
2024/04/10 11:54:20;;;;;;;;;;;16.50;99.40;;;;;;5536975;25;19927;-63
2024/04/10 11:56:47;;;;;;;;;;;16.50;99.10;;;;;;5536271;25;19927;-63
2024/04/10 11:59:14;;;;;;;;;;;16.40;97.70;;;;;;5537051;25;19927;-63
2024/04/10 12:01:41;;;;;;;;;;;16.10;97.70;;;;;;5529726;25;19927;-63
2024/04/10 12:04:08;;;;;;;;;;;16.00;95.90;;;;;;5536577;25;19927;-62
2024/04/10 12:06:34;;;;;;;;;;;16.30;97.60;;;;;;5532765;25;19927;-62
2024/04/10 12:09:02;;;;;;;;;;;16.60;97.10;;;;;;5463581;25;19927;-62
2024/04/10 12:11:29;;;;;;;;;;;16.60;96.70;;;;;;5537864;25;19927;-62
2024/04/10 12:13:55;;;;;;;;;;;17.00;96.90;;;;;;5533876;25;19927;-63
2024/04/10 12:16:25;;;;;;;;;;;17.20;96.80;;;;;;5531593;25;19942;-62
2024/04/10 12:18:52;;;;;;;;;;;17.30;94.30;;;;;;5535885;25;19942;-62
2024/04/10 12:21:19;;;;;;;;;;;17.40;94.60;;;;;;5534424;25;19934;-63
2024/04/10 12:23:46;;;;;;;;;;;17.60;95.30;;;;;;5535388;25;19927;-62
2024/04/10 12:26:14;;;;;;;;;;;17.40;95.30;;;;;;5534692;25;19942;-63
2024/04/10 12:28:41;;;;;;;;;;;17.00;94.00;;;;;;5535683;25;19927;-62
2024/04/10 12:31:07;;;;;;;;;;;16.70;95.30;;;;;;5537572;25;20373;-62
2024/04/10 12:33:37;;;;;;;;;;;16.40;96.50;;;;;;5538069;25;19933;-62
2024/04/10 12:38:50;;;;;;;;;;;16.30;96.40;;;;;;5535124;25;19933;-62
2024/04/10 12:41:17;;;;;;;;;;;16.60;94.90;;;;;;5499485;25;19933;-62
2024/04/10 12:43:46;;;;;;;;;;;16.70;95.30;;;;;;5517149;25;19928;-63
2024/04/10 12:46:15;;;;;;;;;;;17.20;98.10;;;;;;5538285;25;19935;-62
2024/04/10 12:48:41;;;;;;;;;;;17.10;95.50;;;;;;5531009;25;20370;-64
2024/04/10 12:51:08;;;;;;;;;;;17.00;94.50;;;;;;5540806;25;20385;-63
2024/04/10 12:53:35;;;;;;;;;;;17.20;94.80;;;;;;5535513;25;19927;-62
2024/04/10 12:56:02;;;;;;;;;;;17.30;95.10;;;;;;5535411;25;19933;-63
2024/04/10 12:58:31;;;;;;;;;;;17.40;94.30;;;;;;5533576;25;20504;-63
2024/04/10 13:00:58;;;;;;;;;;;17.50;94.70;;;;;;5535544;25;19928;-63
2024/04/10 13:03:25;;;;;;;;;;;17.70;93.90;;;;;;5539276;25;20772;-62
2024/04/10 13:05:56;;;;;;;;;;;17.60;92.30;;;;;;5536258;25;20557;-63
2024/04/10 13:08:23;;;;;;;;;;;17.70;92.80;;;;;;5533764;25;20617;-63
2024/04/10 13:10:52;;;;;;;;;;;17.90;93.00;;;;;;5539443;25;20347;-63
2024/04/10 13:13:18;;;;;;;;;;;18.00;92.50;;;;;;5534149;25;20465;-63
2024/04/10 13:15:45;;;;;;;;;;;18.10;93.60;;;;;;5536118;25;19927;-63
2024/04/10 13:18:12;;;;;;;;;;;17.80;92.10;;;;;;5535275;25;20337;-63
2024/04/10 13:20:39;;;;;;;;;;;18.20;94.00;;;;;;5539954;25;20470;-63
2024/04/10 13:23:06;;;;;;;;;;;18.10;92.00;;;;;;5535231;25;19927;-63
2024/04/10 13:25:33;;;;;;;;;;;18.20;91.90;;;;;;5534140;25;19941;-63
2024/04/10 13:28:00;;;;;;;;;;;18.10;92.00;;;;;;5537298;25;19926;-63
2024/04/10 13:30:27;;;;;;;;;;;18.40;92.10;;;;;;5538143;25;19931;-62
2024/04/10 13:32:53;;;;;;;;;;;18.50;91.20;;;;;;5529971;25;19926;-62
2024/04/10 13:35:20;;;;;;;;;;;18.10;91.70;;;;;;5537857;25;19942;-63
2024/04/10 13:37:47;;;;;;;;;;;18.10;92.00;;;;;;5533616;25;19927;-62
2024/04/10 13:40:15;;;;;;;;;;;18.20;91.80;;;;;;5535749;25;19927;-63
2024/04/10 13:42:42;;;;;;;;;;;18.20;92.00;;;;;;5531588;25;20365;-63
2024/04/10 13:45:10;;;;;;;;;;;18.20;90.80;;;;;;5537182;25;20277;-63
2024/04/10 13:47:37;;;;;;;;;;;18.20;91.40;;;;;;5533960;25;19926;-63
2024/04/10 13:50:05;;;;;;;;;;;18.40;91.60;;;;;;5534989;25;20291;-63
2024/04/10 13:52:32;;;;;;;;;;;18.40;90.40;;;;;;5531128;25;20313;-63
2024/04/10 13:54:59;;;;;;;;;;;18.20;88.80;;;;;;5534466;25;19938;-63
2024/04/10 13:57:26;;;;;;;;;;;18.30;91.80;;;;;;5535304;25;19927;-65
2024/04/10 13:59:53;;;;;;;;;;;18.10;90.50;;;;;;5534127;25;19967;-62
2024/04/10 14:02:20;;;;;;;;;;;18.10;90.20;;;;;;5540127;25;19927;-63
2024/04/10 14:04:46;;;;;;;;;;;18.20;90.00;;;;;;5530213;25;19933;-62
2024/04/10 14:07:13;;;;;;;;;;;17.90;90.10;;;;;;5533459;25;20427;-63
2024/04/10 14:09:40;;;;;;;;;;;17.80;88.90;;;;;;5527990;25;19933;-63
2024/04/10 14:12:07;;;;;;;;;;;17.80;90.90;;;;;;5537529;25;19926;-63
2024/04/10 14:14:34;;;;;;;;;;;17.40;90.30;;;;;;5533940;25;19937;-63
2024/04/10 14:17:04;;;;;;;;;;;17.50;91.60;;;;;;5539212;25;20347;-63
2024/04/10 14:19:31;;;;;;;;;;;17.70;92.90;;;;;;5532958;25;19928;-63
2024/04/10 14:21:58;;;;;;;;;;;17.40;90.20;;;;;;5535050;25;19927;-63
2024/04/10 14:24:25;;;;;;;;;;;17.40;90.40;;;;;;5531884;25;19926;-62
2024/04/10 14:26:52;;;;;;;;;;;17.30;90.10;;;;;;5538732;25;19926;-62
2024/04/10 14:29:18;;;;;;;;;;;17.30;90.90;;;;;;5533125;25;19926;-63
2024/04/10 14:31:46;;;;;;;;;;;17.50;91.70;;;;;;5539715;25;19934;-63